sensor_id;sensor_type;location;lat;lon;timestamp;pressure;altitude;pressure_sealevel;temperature;humidity
54924;BME280;40825;52.270;20.984;2022-08-24T00:00:06;100651.86;;;22.83;69.35
54924;BME280;40825;52.270;20.984;2022-08-24T00:00:48;100656.48;;;22.74;69.39
54924;BME280;40825;52.270;20.984;2022-08-24T00:01:13;100654.23;;;22.70;69.65
54924;BME280;40825;52.270;20.984;2022-08-24T00:01:35;100652.20;;;22.67;69.60
54924;BME280;40825;52.270;20.984;2022-08-24T00:01:56;100654.05;;;22.68;69.82
54924;BME280;40825;52.270;20.984;2022-08-24T00:02:18;100651.93;;;22.69;69.80
54924;BME280;40825;52.270;20.984;2022-08-24T00:02:40;100653.02;;;22.70;69.90
54924;BME280;40825;52.270;20.984;2022-08-24T00:03:02;100651.29;;;22.71;69.79
54924;BME280;40825;52.270;20.984;2022-08-24T00:03:24;100655.53;;;22.71;69.90
54924;BME280;40825;52.270;20.984;2022-08-24T00:03:47;100655.98;;;22.71;69.88
54924;BME280;40825;52.270;20.984;2022-08-24T00:04:08;100653.91;;;22.70;69.82
54924;BME280;40825;52.270;20.984;2022-08-24T00:04:30;100655.27;;;22.71;69.91
54924;BME280;40825;52.270;20.984;2022-08-24T00:04:52;100655.42;;;22.71;69.92
54924;BME280;40825;52.270;20.984;2022-08-24T00:05:16;100656.02;;;22.70;69.86
54924;BME280;40825;52.270;20.984;2022-08-24T00:05:41;100653.79;;;22.69;69.79
54924;BME280;40825;52.270;20.984;2022-08-24T00:06:04;100661.08;;;22.69;69.99
54924;BME280;40825;52.270;20.984;2022-08-24T00:06:27;100660.41;;;22.68;69.83
54924;BME280;40825;52.270;20.984;2022-08-24T00:06:49;100658.55;;;22.68;69.95
54924;BME280;40825;52.270;20.984;2022-08-24T00:07:10;100657.31;;;22.68;69.91
54924;BME280;40825;52.270;20.984;2022-08-24T00:07:32;100662.87;;;22.69;69.80
54924;BME280;40825;52.270;20.984;2022-08-24T00:07:54;100658.56;;;22.68;69.88
54924;BME280;40825;52.270;20.984;2022-08-24T00:08:16;100661.03;;;22.69;69.84
54924;BME280;40825;52.270;20.984;2022-08-24T00:08:40;100661.78;;;22.69;69.83
54924;BME280;40825;52.270;20.984;2022-08-24T00:09:02;100662.98;;;22.68;69.73
54924;BME280;40825;52.270;20.984;2022-08-24T00:09:24;100662.10;;;22.66;69.70
54924;BME280;40825;52.270;20.984;2022-08-24T00:09:47;100661.38;;;22.65;69.72
54924;BME280;40825;52.270;20.984;2022-08-24T00:10:09;100663.52;;;22.66;69.69
54924;BME280;40825;52.270;20.984;2022-08-24T00:10:31;100659.64;;;22.65;69.56
54924;BME280;40825;52.270;20.984;2022-08-24T00:10:53;100663.00;;;22.63;69.69
54924;BME280;40825;52.270;20.984;2022-08-24T00:11:15;100665.36;;;22.63;69.77
54924;BME280;40825;52.270;20.984;2022-08-24T00:11:37;100663.72;;;22.62;69.70
54924;BME280;40825;52.270;20.984;2022-08-24T00:11:58;100661.11;;;22.61;69.60
54924;BME280;40825;52.270;20.984;2022-08-24T00:12:20;100667.19;;;22.60;69.74
54924;BME280;40825;52.270;20.984;2022-08-24T00:12:41;100665.88;;;22.59;69.76
54924;BME280;40825;52.270;20.984;2022-08-24T00:13:04;100662.56;;;22.59;69.85
54924;BME280;40825;52.270;20.984;2022-08-24T00:13:26;100664.24;;;22.58;69.79
54924;BME280;40825;52.270;20.984;2022-08-24T00:13:49;100667.67;;;22.58;69.85
54924;BME280;40825;52.270;20.984;2022-08-24T00:14:11;100664.84;;;22.58;69.88
54924;BME280;40825;52.270;20.984;2022-08-24T00:14:33;100666.64;;;22.58;69.86
54924;BME280;40825;52.270;20.984;2022-08-24T00:14:54;100664.79;;;22.57;69.86
54924;BME280;40825;52.270;20.984;2022-08-24T00:15:16;100669.14;;;22.57;69.80
54924;BME280;40825;52.270;20.984;2022-08-24T00:15:39;100668.92;;;22.57;69.87
54924;BME280;40825;52.270;20.984;2022-08-24T00:16:01;100670.64;;;22.56;69.75
54924;BME280;40825;52.270;20.984;2022-08-24T00:16:23;100670.77;;;22.55;69.83
54924;BME280;40825;52.270;20.984;2022-08-24T00:16:45;100672.84;;;22.55;69.79
54924;BME280;40825;52.270;20.984;2022-08-24T00:17:07;100669.02;;;22.55;69.85
54924;BME280;40825;52.270;20.984;2022-08-24T00:17:28;100669.02;;;22.55;69.89
54924;BME280;40825;52.270;20.984;2022-08-24T00:17:50;100668.73;;;22.55;69.85
54924;BME280;40825;52.270;20.984;2022-08-24T00:18:12;100669.62;;;22.56;69.83
54924;BME280;40825;52.270;20.984;2022-08-24T00:18:35;100665.92;;;22.56;69.85
54924;BME280;40825;52.270;20.984;2022-08-24T00:18:57;100669.83;;;22.55;69.81
54924;BME280;40825;52.270;20.984;2022-08-24T00:19:18;100668.20;;;22.54;69.78
54924;BME280;40825;52.270;20.984;2022-08-24T00:19:40;100669.17;;;22.54;69.85
54924;BME280;40825;52.270;20.984;2022-08-24T00:20:03;100669.45;;;22.53;69.92
54924;BME280;40825;52.270;20.984;2022-08-24T00:20:25;100668.61;;;22.52;69.81
54924;BME280;40825;52.270;20.984;2022-08-24T00:20:47;100667.42;;;22.51;69.81
54924;BME280;40825;52.270;20.984;2022-08-24T00:21:09;100669.86;;;22.51;69.98
54924;BME280;40825;52.270;20.984;2022-08-24T00:21:31;100668.34;;;22.50;69.94
54924;BME280;40825;52.270;20.984;2022-08-24T00:21:54;100668.80;;;22.49;70.00
54924;BME280;40825;52.270;20.984;2022-08-24T00:22:15;100668.14;;;22.49;70.01
54924;BME280;40825;52.270;20.984;2022-08-24T00:22:37;100666.27;;;22.50;70.04
54924;BME280;40825;52.270;20.984;2022-08-24T00:23:00;100668.11;;;22.49;69.95
54924;BME280;40825;52.270;20.984;2022-08-24T00:23:22;100667.17;;;22.49;70.07
54924;BME280;40825;52.270;20.984;2022-08-24T00:23:44;100666.73;;;22.49;70.03
54924;BME280;40825;52.270;20.984;2022-08-24T00:24:09;100669.13;;;22.48;70.17
54924;BME280;40825;52.270;20.984;2022-08-24T00:24:31;100665.70;;;22.48;70.25
54924;BME280;40825;52.270;20.984;2022-08-24T00:24:54;100665.48;;;22.48;70.19
54924;BME280;40825;52.270;20.984;2022-08-24T00:25:16;100667.55;;;22.49;70.25
54924;BME280;40825;52.270;20.984;2022-08-24T00:25:40;100662.11;;;22.48;70.39
54924;BME280;40825;52.270;20.984;2022-08-24T00:26:03;100664.12;;;22.48;70.34
54924;BME280;40825;52.270;20.984;2022-08-24T00:26:25;100665.59;;;22.48;70.41
54924;BME280;40825;52.270;20.984;2022-08-24T00:26:48;100667.05;;;22.48;70.46
54924;BME280;40825;52.270;20.984;2022-08-24T00:27:10;100667.27;;;22.49;70.42
54924;BME280;40825;52.270;20.984;2022-08-24T00:27:33;100663.54;;;22.49;70.50
54924;BME280;40825;52.270;20.984;2022-08-24T00:27:54;100664.18;;;22.50;70.45
54924;BME280;40825;52.270;20.984;2022-08-24T00:28:16;100668.62;;;22.51;70.48
54924;BME280;40825;52.270;20.984;2022-08-24T00:28:38;100665.90;;;22.50;70.49
54924;BME280;40825;52.270;20.984;2022-08-24T00:29:00;100661.86;;;22.51;70.41
54924;BME280;40825;52.270;20.984;2022-08-24T00:29:22;100668.52;;;22.51;70.51
54924;BME280;40825;52.270;20.984;2022-08-24T00:29:43;100669.81;;;22.51;70.50
54924;BME280;40825;52.270;20.984;2022-08-24T00:30:09;100670.14;;;22.51;70.42
54924;BME280;40825;52.270;20.984;2022-08-24T00:30:32;100665.13;;;22.51;70.39
54924;BME280;40825;52.270;20.984;2022-08-24T00:30:53;100666.60;;;22.50;70.53
54924;BME280;40825;52.270;20.984;2022-08-24T00:31:16;100665.75;;;22.49;70.53
54924;BME280;40825;52.270;20.984;2022-08-24T00:31:38;100666.71;;;22.50;70.44
54924;BME280;40825;52.270;20.984;2022-08-24T00:32:00;100667.15;;;22.51;70.48
54924;BME280;40825;52.270;20.984;2022-08-24T00:32:21;100670.59;;;22.52;70.68
54924;BME280;40825;52.270;20.984;2022-08-24T00:32:44;100667.17;;;22.54;70.48
54924;BME280;40825;52.270;20.984;2022-08-24T00:33:06;100663.30;;;22.54;70.46
54924;BME280;40825;52.270;20.984;2022-08-24T00:33:28;100663.41;;;22.55;70.40
54924;BME280;40825;52.270;20.984;2022-08-24T00:33:50;100663.95;;;22.56;70.44
54924;BME280;40825;52.270;20.984;2022-08-24T00:34:11;100661.40;;;22.56;70.40
54924;BME280;40825;52.270;20.984;2022-08-24T00:34:34;100664.79;;;22.56;70.43
54924;BME280;40825;52.270;20.984;2022-08-24T00:34:56;100659.56;;;22.56;70.37
54924;BME280;40825;52.270;20.984;2022-08-24T00:35:19;100662.11;;;22.56;70.42
54924;BME280;40825;52.270;20.984;2022-08-24T00:35:42;100662.17;;;22.57;70.23
54924;BME280;40825;52.270;20.984;2022-08-24T00:36:04;100662.49;;;22.57;70.20
54924;BME280;40825;52.270;20.984;2022-08-24T00:36:26;100662.44;;;22.57;70.30
54924;BME280;40825;52.270;20.984;2022-08-24T00:36:47;100660.81;;;22.57;70.20
54924;BME280;40825;52.270;20.984;2022-08-24T00:37:09;100660.16;;;22.58;70.25
54924;BME280;40825;52.270;20.984;2022-08-24T00:37:30;100660.42;;;22.59;70.09
54924;BME280;40825;52.270;20.984;2022-08-24T00:37:53;100656.84;;;22.58;70.11
54924;BME280;40825;52.270;20.984;2022-08-24T00:38:15;100657.29;;;22.58;70.12
54924;BME280;40825;52.270;20.984;2022-08-24T00:38:36;100658.90;;;22.57;70.07
54924;BME280;40825;52.270;20.984;2022-08-24T00:38:58;100654.32;;;22.56;70.09
54924;BME280;40825;52.270;20.984;2022-08-24T00:39:20;100654.44;;;22.55;70.18
54924;BME280;40825;52.270;20.984;2022-08-24T00:39:41;100655.03;;;22.55;70.20
54924;BME280;40825;52.270;20.984;2022-08-24T00:40:07;100654.33;;;22.54;70.27
54924;BME280;40825;52.270;20.984;2022-08-24T00:40:40;100652.56;;;22.51;70.28
54924;BME280;40825;52.270;20.984;2022-08-24T00:41:03;100651.27;;;22.48;70.38
54924;BME280;40825;52.270;20.984;2022-08-24T00:41:26;100652.58;;;22.46;70.54
54924;BME280;40825;52.270;20.984;2022-08-24T00:41:49;100655.73;;;22.45;70.62
54924;BME280;40825;52.270;20.984;2022-08-24T00:42:11;100651.65;;;22.45;70.53
54924;BME280;40825;52.270;20.984;2022-08-24T00:42:32;100653.17;;;22.45;70.61
54924;BME280;40825;52.270;20.984;2022-08-24T00:42:55;100656.55;;;22.46;70.63
54924;BME280;40825;52.270;20.984;2022-08-24T00:43:25;100654.04;;;22.44;70.53
54924;BME280;40825;52.270;20.984;2022-08-24T00:43:59;100654.24;;;22.44;70.61
54924;BME280;40825;52.270;20.984;2022-08-24T00:44:22;100653.59;;;22.41;70.56
54924;BME280;40825;52.270;20.984;2022-08-24T00:44:43;100654.16;;;22.39;70.71
54924;BME280;40825;52.270;20.984;2022-08-24T00:45:07;100651.99;;;22.40;70.70
54924;BME280;40825;52.270;20.984;2022-08-24T00:46:03;100655.60;;;22.42;70.71
54924;BME280;40825;52.270;20.984;2022-08-24T00:46:43;100654.41;;;22.33;70.67
54924;BME280;40825;52.270;20.984;2022-08-24T00:47:16;100654.88;;;22.28;70.66
54924;BME280;40825;52.270;20.984;2022-08-24T00:47:48;100656.23;;;22.26;70.77
54924;BME280;40825;52.270;20.984;2022-08-24T00:48:18;100658.55;;;22.25;70.80
54924;BME280;40825;52.270;20.984;2022-08-24T00:48:45;100656.83;;;22.25;70.81
54924;BME280;40825;52.270;20.984;2022-08-24T00:50:01;100651.33;;;22.25;70.75
54924;BME280;40825;52.270;20.984;2022-08-24T00:50:32;100658.27;;;22.22;70.74
54924;BME280;40825;52.270;20.984;2022-08-24T00:51:06;100655.52;;;22.19;70.83
54924;BME280;40825;52.270;20.984;2022-08-24T00:51:36;100653.08;;;22.17;70.85
54924;BME280;40825;52.270;20.984;2022-08-24T00:52:29;100657.32;;;22.17;71.03
54924;BME280;40825;52.270;20.984;2022-08-24T00:52:56;100655.10;;;22.10;70.94
54924;BME280;40825;52.270;20.984;2022-08-24T00:53:33;100654.23;;;22.09;71.20
54924;BME280;40825;52.270;20.984;2022-08-24T00:54:03;100656.56;;;22.08;71.31
54924;BME280;40825;52.270;20.984;2022-08-24T00:54:27;100653.00;;;22.07;71.41
54924;BME280;40825;52.270;20.984;2022-08-24T00:55:35;100654.58;;;22.06;71.55
54924;BME280;40825;52.270;20.984;2022-08-24T00:56:03;100654.25;;;22.05;71.55
54924;BME280;40825;52.270;20.984;2022-08-24T00:56:30;100654.36;;;22.05;71.58
54924;BME280;40825;52.270;20.984;2022-08-24T00:56:56;100654.52;;;22.04;71.64
54924;BME280;40825;52.270;20.984;2022-08-24T00:57:22;100655.61;;;22.04;71.55
54924;BME280;40825;52.270;20.984;2022-08-24T00:57:51;100654.95;;;22.05;71.53
54924;BME280;40825;52.270;20.984;2022-08-24T00:58:17;100655.48;;;22.03;71.34
54924;BME280;40825;52.270;20.984;2022-08-24T00:58:45;100658.82;;;21.98;71.53
54924;BME280;40825;52.270;20.984;2022-08-24T00:59:15;100652.99;;;21.95;71.65
54924;BME280;40825;52.270;20.984;2022-08-24T00:59:51;100655.04;;;21.94;71.59
54924;BME280;40825;52.270;20.984;2022-08-24T01:00:19;100656.40;;;21.93;71.58
54924;BME280;40825;52.270;20.984;2022-08-24T01:00:45;100653.45;;;21.91;71.85
54924;BME280;40825;52.270;20.984;2022-08-24T01:01:08;100655.51;;;21.90;71.80
54924;BME280;40825;52.270;20.984;2022-08-24T01:01:34;100653.11;;;21.90;72.10
54924;BME280;40825;52.270;20.984;2022-08-24T01:01:57;100655.95;;;21.90;72.07
54924;BME280;40825;52.270;20.984;2022-08-24T01:02:22;100655.48;;;21.92;72.11
54924;BME280;40825;52.270;20.984;2022-08-24T01:02:53;100656.83;;;21.92;72.14
54924;BME280;40825;52.270;20.984;2022-08-24T01:03:16;100655.91;;;21.92;72.10
54924;BME280;40825;52.270;20.984;2022-08-24T01:03:37;100653.35;;;21.92;72.21
54924;BME280;40825;52.270;20.984;2022-08-24T01:03:59;100658.24;;;21.93;72.28
54924;BME280;40825;52.270;20.984;2022-08-24T01:04:26;100656.78;;;21.94;72.24
54924;BME280;40825;52.270;20.984;2022-08-24T01:04:56;100653.74;;;21.95;72.07
54924;BME280;40825;52.270;20.984;2022-08-24T01:05:18;100656.94;;;21.94;72.06
54924;BME280;40825;52.270;20.984;2022-08-24T01:05:40;100658.57;;;21.94;72.18
54924;BME280;40825;52.270;20.984;2022-08-24T01:06:02;100654.74;;;21.95;72.19
54924;BME280;40825;52.270;20.984;2022-08-24T01:06:25;100652.14;;;21.95;72.08
54924;BME280;40825;52.270;20.984;2022-08-24T01:06:47;100654.41;;;21.96;72.09
54924;BME280;40825;52.270;20.984;2022-08-24T01:07:10;100654.41;;;21.96;72.06
54924;BME280;40825;52.270;20.984;2022-08-24T01:07:33;100658.66;;;21.96;72.05
54924;BME280;40825;52.270;20.984;2022-08-24T01:07:55;100652.61;;;21.95;72.06
54924;BME280;40825;52.270;20.984;2022-08-24T01:08:16;100657.79;;;21.95;72.01
54924;BME280;40825;52.270;20.984;2022-08-24T01:08:39;100657.73;;;21.96;72.03
54924;BME280;40825;52.270;20.984;2022-08-24T01:09:01;100651.42;;;21.96;72.18
54924;BME280;40825;52.270;20.984;2022-08-24T01:09:23;100655.23;;;21.97;72.10
54924;BME280;40825;52.270;20.984;2022-08-24T01:09:45;100656.52;;;21.99;72.12
54924;BME280;40825;52.270;20.984;2022-08-24T01:10:13;100653.30;;;22.01;72.11
54924;BME280;40825;52.270;20.984;2022-08-24T01:10:46;100657.42;;;22.01;72.03
54924;BME280;40825;52.270;20.984;2022-08-24T01:11:13;100653.92;;;21.97;72.15
54924;BME280;40825;52.270;20.984;2022-08-24T01:11:35;100656.58;;;21.95;72.13
54924;BME280;40825;52.270;20.984;2022-08-24T01:11:57;100658.27;;;21.96;72.30
54924;BME280;40825;52.270;20.984;2022-08-24T01:12:19;100659.19;;;21.97;72.23
54924;BME280;40825;52.270;20.984;2022-08-24T01:12:44;100655.73;;;21.98;72.24
54924;BME280;40825;52.270;20.984;2022-08-24T01:13:08;100658.02;;;21.98;72.07
54924;BME280;40825;52.270;20.984;2022-08-24T01:13:32;100657.33;;;21.98;72.10
54924;BME280;40825;52.270;20.984;2022-08-24T01:13:55;100656.27;;;21.98;72.14
54924;BME280;40825;52.270;20.984;2022-08-24T01:14:20;100657.55;;;21.99;72.17
54924;BME280;40825;52.270;20.984;2022-08-24T01:14:42;100657.92;;;22.00;72.19
54924;BME280;40825;52.270;20.984;2022-08-24T01:15:07;100661.57;;;22.01;72.19
54924;BME280;40825;52.270;20.984;2022-08-24T01:15:33;100657.00;;;22.01;72.04
54924;BME280;40825;52.270;20.984;2022-08-24T01:15:59;100659.28;;;22.01;72.05
54924;BME280;40825;52.270;20.984;2022-08-24T01:16:22;100660.80;;;22.00;72.26
54924;BME280;40825;52.270;20.984;2022-08-24T01:17:03;100660.45;;;21.97;72.13
54924;BME280;40825;52.270;20.984;2022-08-24T01:17:43;100660.91;;;21.93;72.20
54924;BME280;40825;52.270;20.984;2022-08-24T01:18:25;100665.41;;;21.90;72.30
54924;BME280;40825;52.270;20.984;2022-08-24T01:19:36;100665.00;;;21.86;72.38
54924;BME280;40825;52.270;20.984;2022-08-24T01:19:59;100664.90;;;21.80;72.50
54924;BME280;40825;52.270;20.984;2022-08-24T01:20:25;100662.67;;;21.79;72.58
54924;BME280;40825;52.270;20.984;2022-08-24T01:21:01;100668.81;;;21.81;72.51
54924;BME280;40825;52.270;20.984;2022-08-24T01:21:35;100665.95;;;21.82;72.42
54924;BME280;40825;52.270;20.984;2022-08-24T01:24:04;100669.61;;;21.72;72.76
54924;BME280;40825;52.270;20.984;2022-08-24T01:24:31;100666.32;;;21.69;72.83
54924;BME280;40825;52.270;20.984;2022-08-24T01:24:53;100669.29;;;21.71;72.90
54924;BME280;40825;52.270;20.984;2022-08-24T01:25:15;100667.06;;;21.74;73.01
54924;BME280;40825;52.270;20.984;2022-08-24T01:25:41;100666.00;;;21.76;72.99
54924;BME280;40825;52.270;20.984;2022-08-24T01:26:10;100670.23;;;21.80;72.94
54924;BME280;40825;52.270;20.984;2022-08-24T01:26:44;100670.01;;;21.80;73.03
54924;BME280;40825;52.270;20.984;2022-08-24T01:27:08;100667.61;;;21.79;72.94
54924;BME280;40825;52.270;20.984;2022-08-24T01:27:33;100666.52;;;21.77;73.06
54924;BME280;40825;52.270;20.984;2022-08-24T01:28:00;100668.58;;;21.79;73.06
54924;BME280;40825;52.270;20.984;2022-08-24T01:28:24;100667.66;;;21.80;73.00
54924;BME280;40825;52.270;20.984;2022-08-24T01:28:49;100667.23;;;21.79;73.18
54924;BME280;40825;52.270;20.984;2022-08-24T01:29:18;100663.86;;;21.80;73.06
54924;BME280;40825;52.270;20.984;2022-08-24T01:29:43;100663.21;;;21.79;73.09
54924;BME280;40825;52.270;20.984;2022-08-24T01:30:08;100664.95;;;21.79;73.11
54924;BME280;40825;52.270;20.984;2022-08-24T01:30:30;100668.10;;;21.78;73.15
54924;BME280;40825;52.270;20.984;2022-08-24T01:30:52;100662.73;;;21.79;73.19
54924;BME280;40825;52.270;20.984;2022-08-24T01:31:17;100666.04;;;21.80;73.21
54924;BME280;40825;52.270;20.984;2022-08-24T01:31:39;100664.90;;;21.80;73.13
54924;BME280;40825;52.270;20.984;2022-08-24T01:32:00;100665.81;;;21.80;73.14
54924;BME280;40825;52.270;20.984;2022-08-24T01:32:23;100663.98;;;21.81;73.14
54924;BME280;40825;52.270;20.984;2022-08-24T01:32:53;100667.52;;;21.82;73.07
54924;BME280;40825;52.270;20.984;2022-08-24T01:33:27;100666.10;;;21.81;73.11
54924;BME280;40825;52.270;20.984;2022-08-24T01:33:51;100665.21;;;21.78;73.17
54924;BME280;40825;52.270;20.984;2022-08-24T01:34:13;100662.05;;;21.77;73.30
54924;BME280;40825;52.270;20.984;2022-08-24T01:34:35;100667.98;;;21.79;73.34
54924;BME280;40825;52.270;20.984;2022-08-24T01:34:56;100665.61;;;21.80;73.29
54924;BME280;40825;52.270;20.984;2022-08-24T01:35:18;100668.62;;;21.83;73.40
54924;BME280;40825;52.270;20.984;2022-08-24T01:35:40;100666.82;;;21.84;73.32
54924;BME280;40825;52.270;20.984;2022-08-24T01:36:08;100668.36;;;21.86;73.35
54924;BME280;40825;52.270;20.984;2022-08-24T01:36:43;100668.80;;;21.86;73.25
54924;BME280;40825;52.270;20.984;2022-08-24T01:37:08;100670.67;;;21.83;73.27
54924;BME280;40825;52.270;20.984;2022-08-24T01:37:31;100669.30;;;21.82;73.32
54924;BME280;40825;52.270;20.984;2022-08-24T01:37:54;100668.83;;;21.83;73.33
54924;BME280;40825;52.270;20.984;2022-08-24T01:38:16;100669.75;;;21.83;73.30
54924;BME280;40825;52.270;20.984;2022-08-24T01:38:39;100669.38;;;21.85;73.25
54924;BME280;40825;52.270;20.984;2022-08-24T01:39:05;100669.23;;;21.86;73.29
54924;BME280;40825;52.270;20.984;2022-08-24T01:39:35;100670.73;;;21.85;73.30
54924;BME280;40825;52.270;20.984;2022-08-24T01:40:00;100669.50;;;21.85;73.25
54924;BME280;40825;52.270;20.984;2022-08-24T01:40:30;100675.15;;;21.85;73.39
54924;BME280;40825;52.270;20.984;2022-08-24T01:40:57;100675.20;;;21.84;73.22
54924;BME280;40825;52.270;20.984;2022-08-24T01:41:20;100671.23;;;21.84;73.29
54924;BME280;40825;52.270;20.984;2022-08-24T01:41:42;100671.23;;;21.86;73.42
54924;BME280;40825;52.270;20.984;2022-08-24T01:42:03;100673.22;;;21.88;73.32
54924;BME280;40825;52.270;20.984;2022-08-24T01:42:25;100674.05;;;21.89;73.25
54924;BME280;40825;52.270;20.984;2022-08-24T01:42:51;100671.38;;;21.90;73.10
54924;BME280;40825;52.270;20.984;2022-08-24T01:43:13;100671.92;;;21.91;73.06
54924;BME280;40825;52.270;20.984;2022-08-24T01:43:35;100674.48;;;21.91;73.08
54924;BME280;40825;52.270;20.984;2022-08-24T01:43:58;100675.96;;;21.92;73.04
54924;BME280;40825;52.270;20.984;2022-08-24T01:44:22;100675.10;;;21.92;72.98
54924;BME280;40825;52.270;20.984;2022-08-24T01:44:45;100673.70;;;21.93;72.94
54924;BME280;40825;52.270;20.984;2022-08-24T01:45:07;100673.90;;;21.93;72.99
54924;BME280;40825;52.270;20.984;2022-08-24T01:45:29;100676.78;;;21.93;72.92
54924;BME280;40825;52.270;20.984;2022-08-24T01:45:51;100675.97;;;21.94;73.02
54924;BME280;40825;52.270;20.984;2022-08-24T01:46:13;100678.38;;;21.95;72.94
54924;BME280;40825;52.270;20.984;2022-08-24T01:46:35;100681.92;;;21.95;72.94
54924;BME280;40825;52.270;20.984;2022-08-24T01:46:57;100679.80;;;21.95;72.98
54924;BME280;40825;52.270;20.984;2022-08-24T01:47:19;100680.51;;;21.95;72.94
54924;BME280;40825;52.270;20.984;2022-08-24T01:47:41;100679.10;;;21.96;72.85
54924;BME280;40825;52.270;20.984;2022-08-24T01:48:02;100680.34;;;21.96;72.92
54924;BME280;40825;52.270;20.984;2022-08-24T01:48:24;100682.68;;;21.96;72.92
54924;BME280;40825;52.270;20.984;2022-08-24T01:48:46;100680.46;;;21.96;72.76
54924;BME280;40825;52.270;20.984;2022-08-24T01:49:07;100682.14;;;21.97;72.71
54924;BME280;40825;52.270;20.984;2022-08-24T01:49:32;100680.95;;;21.98;72.75
54924;BME280;40825;52.270;20.984;2022-08-24T01:49:54;100678.29;;;21.97;72.72
54924;BME280;40825;52.270;20.984;2022-08-24T01:50:15;100683.56;;;21.97;72.84
54924;BME280;40825;52.270;20.984;2022-08-24T01:50:37;100681.98;;;21.98;72.78
54924;BME280;40825;52.270;20.984;2022-08-24T01:50:58;100681.55;;;21.98;72.79
54924;BME280;40825;52.270;20.984;2022-08-24T01:51:20;100681.02;;;22.00;72.86
54924;BME280;40825;52.270;20.984;2022-08-24T01:51:42;100681.64;;;22.01;72.88
54924;BME280;40825;52.270;20.984;2022-08-24T01:52:08;100683.96;;;22.02;72.80
54924;BME280;40825;52.270;20.984;2022-08-24T01:52:32;100682.07;;;22.02;72.80
54924;BME280;40825;52.270;20.984;2022-08-24T01:52:54;100682.16;;;22.02;72.82
54924;BME280;40825;52.270;20.984;2022-08-24T01:53:19;100682.05;;;22.00;72.85
54924;BME280;40825;52.270;20.984;2022-08-24T01:53:40;100681.52;;;22.01;72.96
54924;BME280;40825;52.270;20.984;2022-08-24T01:54:02;100686.57;;;22.01;72.75
54924;BME280;40825;52.270;20.984;2022-08-24T01:54:25;100685.21;;;22.02;72.79
54924;BME280;40825;52.270;20.984;2022-08-24T01:54:47;100684.40;;;22.01;72.79
54924;BME280;40825;52.270;20.984;2022-08-24T01:55:12;100685.48;;;22.01;72.72
54924;BME280;40825;52.270;20.984;2022-08-24T01:55:34;100687.60;;;22.02;72.70
54924;BME280;40825;52.270;20.984;2022-08-24T01:55:55;100684.77;;;22.00;72.68
54924;BME280;40825;52.270;20.984;2022-08-24T01:56:17;100685.21;;;22.00;72.67
54924;BME280;40825;52.270;20.984;2022-08-24T01:56:39;100684.66;;;22.00;72.73
54924;BME280;40825;52.270;20.984;2022-08-24T01:57:01;100686.19;;;21.99;72.64
54924;BME280;40825;52.270;20.984;2022-08-24T01:57:24;100686.25;;;22.00;72.62
54924;BME280;40825;52.270;20.984;2022-08-24T01:57:46;100683.79;;;21.98;72.55
54924;BME280;40825;52.270;20.984;2022-08-24T01:58:08;100683.93;;;21.97;72.58
54924;BME280;40825;52.270;20.984;2022-08-24T01:58:29;100686.66;;;21.97;72.57
54924;BME280;40825;52.270;20.984;2022-08-24T01:58:51;100685.24;;;21.97;72.49
54924;BME280;40825;52.270;20.984;2022-08-24T01:59:13;100684.54;;;21.97;72.54
54924;BME280;40825;52.270;20.984;2022-08-24T01:59:34;100684.54;;;21.97;72.56
54924;BME280;40825;52.270;20.984;2022-08-24T01:59:56;100686.45;;;21.97;72.65
54924;BME280;40825;52.270;20.984;2022-08-24T02:00:18;100684.59;;;21.97;72.66
54924;BME280;40825;52.270;20.984;2022-08-24T02:00:39;100687.48;;;21.99;72.60
54924;BME280;40825;52.270;20.984;2022-08-24T02:01:01;100686.20;;;21.99;72.50
54924;BME280;40825;52.270;20.984;2022-08-24T02:01:22;100685.64;;;22.00;72.57
54924;BME280;40825;52.270;20.984;2022-08-24T02:01:51;100687.71;;;22.00;72.56
54924;BME280;40825;52.270;20.984;2022-08-24T02:02:17;100687.92;;;22.00;72.35
54924;BME280;40825;52.270;20.984;2022-08-24T02:02:41;100687.16;;;21.97;72.32
54924;BME280;40825;52.270;20.984;2022-08-24T02:03:03;100690.73;;;21.96;72.32
54924;BME280;40825;52.270;20.984;2022-08-24T02:03:25;100689.58;;;21.95;72.27
54924;BME280;40825;52.270;20.984;2022-08-24T02:03:47;100688.37;;;21.94;72.33
54924;BME280;40825;52.270;20.984;2022-08-24T02:04:08;100689.13;;;21.94;72.29
54924;BME280;40825;52.270;20.984;2022-08-24T02:04:33;100692.39;;;21.94;72.18
54924;BME280;40825;52.270;20.984;2022-08-24T02:04:55;100689.18;;;21.94;72.16
54924;BME280;40825;52.270;20.984;2022-08-24T02:05:17;100687.60;;;21.94;72.27
54924;BME280;40825;52.270;20.984;2022-08-24T02:05:39;100689.07;;;21.94;72.19
54924;BME280;40825;52.270;20.984;2022-08-24T02:06:00;100691.52;;;21.94;72.22
54924;BME280;40825;52.270;20.984;2022-08-24T02:06:25;100691.85;;;21.94;72.22
54924;BME280;40825;52.270;20.984;2022-08-24T02:06:47;100687.55;;;21.94;72.22
54924;BME280;40825;52.270;20.984;2022-08-24T02:07:09;100692.88;;;21.94;72.18
54924;BME280;40825;52.270;20.984;2022-08-24T02:07:30;100693.96;;;21.94;72.22
54924;BME280;40825;52.270;20.984;2022-08-24T02:07:53;100692.01;;;21.93;72.37
54924;BME280;40825;52.270;20.984;2022-08-24T02:08:15;100695.38;;;21.94;72.25
54924;BME280;40825;52.270;20.984;2022-08-24T02:08:36;100693.03;;;21.94;72.36
54924;BME280;40825;52.270;20.984;2022-08-24T02:09:16;100690.93;;;21.94;72.26